createdAt,value
2017-02-24T00:00:19.541Z,25.63
2017-02-24T00:00:47.584Z,25.71
2017-02-24T00:01:15.445Z,25.67
2017-02-24T00:01:43.560Z,25.7
2017-02-24T00:02:11.695Z,25.63
2017-02-24T00:02:39.839Z,25.6
2017-02-24T00:03:07.885Z,25.64
2017-02-24T00:03:36.000Z,25.67
2017-02-24T00:04:04.130Z,25.67
2017-02-24T00:04:32.332Z,25.67
2017-02-24T00:05:00.532Z,25.67
2017-02-24T00:05:28.571Z,25.75
2017-02-24T00:05:56.738Z,25.78
2017-02-24T00:06:24.952Z,25.75
2017-02-24T00:06:53.083Z,25.81
2017-02-24T00:07:21.396Z,25.79
2017-02-24T00:07:49.510Z,25.82
2017-02-24T00:08:17.569Z,25.82
2017-02-24T00:08:45.698Z,25.81
2017-02-24T00:09:13.584Z,25.81
2017-02-24T00:09:41.682Z,25.81
2017-02-24T00:10:09.738Z,25.85
2017-02-24T00:10:37.869Z,25.81
2017-02-24T00:11:05.935Z,25.82
2017-02-24T00:11:34.150Z,25.79
2017-02-24T00:12:02.396Z,25.82
2017-02-24T00:12:30.696Z,25.84
2017-02-24T00:12:58.790Z,25.88
2017-02-24T00:13:26.945Z,25.86
2017-02-24T00:13:54.971Z,25.79
2017-02-24T00:14:22.962Z,25.82
2017-02-24T00:14:51.138Z,25.82
2017-02-24T00:15:19.271Z,25.76
2017-02-24T00:15:47.209Z,25.85
2017-02-24T00:16:15.401Z,25.88
2017-02-24T00:16:43.482Z,25.89
2017-02-24T00:17:11.545Z,25.91
2017-02-24T00:17:39.895Z,25.86
2017-02-24T00:18:08.078Z,25.89
2017-02-24T00:18:36.259Z,25.93
2017-02-24T00:19:04.291Z,25.88
2017-02-24T00:19:32.569Z,25.93
2017-02-24T00:20:00.636Z,25.86
2017-02-24T00:20:28.924Z,25.86
2017-02-24T00:20:56.966Z,25.91
2017-02-24T00:21:24.929Z,25.88
2017-02-24T00:21:53.163Z,25.85
2017-02-24T00:22:21.190Z,25.84
2017-02-24T00:22:49.372Z,25.84
2017-02-24T00:23:17.417Z,25.79
2017-02-24T00:23:45.519Z,25.85
2017-02-24T00:24:13.713Z,25.81
2017-02-24T00:24:41.765Z,25.76
2017-02-24T00:25:09.856Z,25.74
2017-02-24T00:25:38.064Z,25.75
2017-02-24T00:26:06.030Z,25.79
2017-02-24T00:26:34.090Z,25.79
2017-02-24T00:27:02.233Z,25.79
2017-02-24T00:27:30.381Z,25.75
2017-02-24T00:27:58.583Z,25.79
2017-02-24T00:28:26.798Z,25.78
2017-02-24T00:28:54.929Z,25.7
2017-02-24T00:29:23.049Z,25.64
2017-02-24T00:29:51.167Z,25.54
2017-02-24T00:30:19.228Z,25.54
2017-02-24T00:30:47.279Z,25.44
2017-02-24T00:31:15.505Z,25.47
2017-02-24T00:31:43.699Z,25.41
2017-02-24T00:32:11.796Z,25.37
2017-02-24T00:32:39.831Z,25.26
2017-02-24T00:33:08.043Z,25.23
2017-02-24T00:33:36.144Z,25.14
2017-02-24T00:34:04.267Z,25.17
2017-02-24T00:34:32.275Z,25.12
2017-02-24T00:35:00.431Z,25.12
2017-02-24T00:35:28.663Z,25.09
2017-02-24T00:35:56.799Z,25.15
2017-02-24T00:36:24.855Z,25.08
2017-02-24T00:36:52.928Z,24.92
2017-02-24T00:37:21.150Z,25.01
2017-02-24T00:37:49.501Z,24.87
2017-02-24T00:38:17.590Z,24.85
2017-02-24T00:38:45.666Z,24.82
2017-02-24T00:39:13.771Z,24.83
2017-02-24T00:39:42.015Z,24.85
2017-02-24T00:40:10.148Z,24.75
2017-02-24T00:40:38.366Z,24.85
2017-02-24T00:41:06.421Z,24.8
2017-02-24T00:41:34.658Z,24.75
2017-02-24T00:42:02.521Z,24.75
2017-02-24T00:42:30.831Z,24.71
2017-02-24T00:42:58.917Z,24.71
2017-02-24T00:43:27.051Z,24.69
2017-02-24T00:43:55.053Z,24.7
2017-02-24T00:44:23.229Z,24.66
2017-02-24T00:44:51.235Z,24.61
2017-02-24T00:45:19.501Z,24.54
2017-02-24T00:45:47.615Z,24.58
2017-02-24T00:46:15.741Z,24.52
2017-02-24T00:46:43.835Z,24.52
2017-02-24T00:47:11.827Z,24.46
2017-02-24T00:47:40.053Z,24.48
2017-02-24T00:48:08.118Z,24.39
2017-02-24T00:48:36.296Z,24.44
2017-02-24T00:49:04.381Z,24.45
2017-02-24T00:49:32.493Z,24.46
2017-02-24T00:50:00.653Z,24.4
2017-02-24T00:50:28.775Z,24.39
2017-02-24T00:50:56.821Z,24.36
2017-02-24T00:51:25.014Z,24.39
2017-02-24T00:51:52.982Z,24.29
2017-02-24T00:52:21.130Z,24.32
2017-02-24T00:52:49.497Z,24.22
2017-02-24T00:53:17.709Z,24.17
2017-02-24T00:53:45.875Z,24.17
2017-02-24T00:54:13.966Z,24.21
2017-02-24T00:54:42.082Z,24.12
2017-02-24T00:55:10.072Z,24.09
2017-02-24T00:55:38.247Z,24.09
2017-02-24T00:56:06.839Z,24.02
2017-02-24T00:56:34.833Z,23.97
2017-02-24T00:57:02.997Z,23.99
2017-02-24T00:57:31.037Z,23.9
2017-02-24T00:57:59.220Z,23.97
2017-02-24T00:58:27.436Z,23.96
2017-02-24T00:58:55.544Z,23.92
2017-02-24T00:59:23.684Z,23.94
2017-02-24T00:59:51.917Z,23.93
2017-02-24T01:00:19.942Z,23.9
2017-02-24T01:00:48.110Z,23.89
2017-02-24T01:01:16.284Z,23.89
2017-02-24T01:01:44.235Z,23.84
2017-02-24T01:02:12.493Z,23.82
2017-02-24T01:02:40.506Z,23.78
2017-02-24T01:03:08.583Z,23.7
2017-02-24T01:03:36.762Z,23.78
2017-02-24T01:04:04.901Z,23.75
2017-02-24T01:04:32.829Z,23.71
2017-02-24T01:05:01.047Z,23.67
2017-02-24T01:05:29.209Z,23.7
2017-02-24T01:05:57.310Z,23.64
2017-02-24T01:06:25.451Z,23.64
2017-02-24T01:06:53.464Z,23.63
2017-02-24T01:07:21.702Z,23.63
2017-02-24T01:07:50.109Z,23.53
2017-02-24T01:08:18.159Z,23.6
2017-02-24T01:08:46.194Z,23.6
2017-02-24T01:09:14.221Z,23.6
2017-02-24T01:09:42.343Z,23.57
2017-02-24T01:10:10.370Z,23.59
2017-02-24T01:10:38.460Z,23.55
2017-02-24T01:11:06.634Z,23.53
2017-02-24T01:11:34.763Z,23.4
2017-02-24T01:12:02.751Z,23.41
2017-02-24T01:12:30.872Z,23.42
2017-02-24T01:12:59.139Z,23.41
2017-02-24T01:13:27.214Z,23.44
2017-02-24T01:13:55.424Z,23.44
2017-02-24T01:14:23.422Z,23.45
2017-02-24T01:14:51.537Z,23.38
2017-02-24T01:15:19.491Z,23.35
2017-02-24T01:15:47.589Z,23.35
2017-02-24T01:16:15.652Z,23.32
2017-02-24T01:16:43.726Z,23.32
2017-02-24T01:17:11.737Z,23.32
2017-02-24T01:17:39.920Z,23.25
2017-02-24T01:18:08.020Z,23.26
2017-02-24T01:18:36.214Z,23.37
2017-02-24T01:19:04.384Z,23.32
2017-02-24T01:19:32.412Z,23.26
2017-02-24T01:20:00.515Z,23.25
2017-02-24T01:20:28.554Z,23.26
2017-02-24T01:20:56.733Z,23.26
2017-02-24T01:21:24.698Z,23.26
2017-02-24T01:21:52.644Z,23.28
2017-02-24T01:22:20.814Z,23.34
2017-02-24T01:22:48.977Z,23.26
2017-02-24T01:23:17.125Z,23.28
2017-02-24T01:23:45.200Z,23.29
2017-02-24T01:24:13.273Z,23.26
2017-02-24T01:24:41.186Z,23.38
2017-02-24T01:25:09.354Z,23.29
2017-02-24T01:25:37.485Z,23.26
2017-02-24T01:26:05.697Z,23.26
2017-02-24T01:26:33.943Z,23.32
2017-02-24T01:27:02.007Z,23.29
2017-02-24T01:27:30.169Z,23.29
2017-02-24T01:27:58.491Z,23.38
2017-02-24T01:28:26.628Z,23.38
2017-02-24T01:28:54.761Z,23.4
2017-02-24T01:29:22.889Z,23.38
2017-02-24T01:29:51.058Z,23.37
2017-02-24T01:30:19.053Z,23.32
2017-02-24T01:30:47.071Z,23.32
2017-02-24T01:31:15.129Z,23.34
2017-02-24T01:31:43.208Z,23.32
2017-02-24T01:32:11.188Z,23.29
2017-02-24T01:32:39.227Z,23.42
2017-02-24T01:33:07.410Z,23.41
2017-02-24T01:33:35.362Z,23.32
2017-02-24T01:34:03.498Z,23.42
2017-02-24T01:34:31.522Z,23.38
2017-02-24T01:34:59.645Z,23.38
2017-02-24T01:35:27.778Z,23.37
2017-02-24T01:35:56.006Z,23.29
2017-02-24T01:36:24.037Z,23.35
2017-02-24T01:36:52.114Z,23.37
2017-02-24T01:37:20.285Z,23.38
2017-02-24T01:37:48.507Z,23.25
2017-02-24T01:38:16.847Z,23.34
2017-02-24T01:38:44.904Z,23.37
2017-02-24T01:39:13.105Z,23.25
2017-02-24T01:39:40.982Z,23.35
2017-02-24T01:40:09.020Z,23.28
2017-02-24T01:40:37.124Z,23.29
2017-02-24T01:41:05.235Z,23.35
2017-02-24T01:41:33.446Z,23.32
2017-02-24T01:42:01.461Z,23.34
2017-02-24T01:42:29.555Z,23.34
2017-02-24T01:42:57.727Z,23.29
2017-02-24T01:43:26.047Z,23.34
2017-02-24T01:43:54.234Z,23.37
2017-02-24T01:44:22.212Z,23.34
2017-02-24T01:44:50.205Z,23.34
2017-02-24T01:45:18.350Z,23.32
2017-02-24T01:45:46.406Z,23.34
2017-02-24T01:46:14.461Z,23.44
2017-02-24T01:46:42.592Z,23.38
2017-02-24T01:47:10.702Z,23.44
2017-02-24T01:47:38.928Z,23.45
2017-02-24T01:48:07.155Z,23.4
2017-02-24T01:48:35.493Z,23.44
2017-02-24T01:49:03.623Z,23.38
2017-02-24T01:49:31.666Z,23.44
2017-02-24T01:49:59.704Z,23.45
2017-02-24T01:50:27.824Z,23.42
2017-02-24T01:50:55.920Z,23.44
2017-02-24T01:51:23.890Z,23.52
2017-02-24T01:51:51.956Z,23.57
2017-02-24T01:52:20.120Z,23.47
2017-02-24T01:52:48.310Z,23.5
2017-02-24T01:53:16.581Z,23.6
2017-02-24T01:53:44.682Z,23.62
2017-02-24T01:54:12.659Z,23.59
2017-02-24T01:54:40.626Z,23.56
2017-02-24T01:55:08.727Z,23.55
2017-02-24T01:55:36.829Z,23.56
2017-02-24T01:56:04.859Z,23.56
2017-02-24T01:56:32.983Z,23.66
2017-02-24T01:57:01.173Z,23.64
2017-02-24T01:57:29.368Z,23.75
2017-02-24T01:57:57.508Z,23.7
2017-02-24T01:58:25.807Z,23.72
2017-02-24T01:58:53.948Z,23.74
2017-02-24T01:59:22.147Z,23.66
2017-02-24T01:59:50.366Z,23.7
2017-02-24T02:00:18.546Z,23.74
2017-02-24T02:00:46.683Z,23.67
2017-02-24T02:01:14.834Z,23.67
2017-02-24T02:01:42.906Z,23.75
2017-02-24T02:02:11.152Z,23.77
2017-02-24T02:02:39.095Z,23.72
2017-02-24T02:03:07.184Z,23.74
2017-02-24T02:03:35.201Z,23.74
2017-02-24T02:04:03.235Z,23.71
2017-02-24T02:04:31.284Z,23.77
2017-02-24T02:04:59.388Z,23.75
2017-02-24T02:05:27.487Z,23.74
2017-02-24T02:05:55.625Z,23.67
2017-02-24T02:06:23.736Z,23.72
2017-02-24T02:06:51.736Z,23.7
2017-02-24T02:07:19.945Z,23.72
2017-02-24T02:07:47.957Z,23.7
2017-02-24T02:08:16.097Z,23.64
2017-02-24T02:08:44.534Z,23.55
2017-02-24T02:09:12.442Z,23.55
2017-02-24T02:09:40.574Z,23.5
2017-02-24T02:10:08.678Z,23.4
2017-02-24T02:10:36.787Z,23.38
2017-02-24T02:11:04.856Z,23.35
2017-02-24T02:11:32.951Z,23.35
2017-02-24T02:12:01.172Z,23.26
2017-02-24T02:12:29.117Z,23.34
2017-02-24T02:12:57.179Z,23.32
2017-02-24T02:13:25.342Z,23.28
2017-02-24T02:13:53.568Z,23.21
2017-02-24T02:14:21.694Z,23.26
2017-02-24T02:14:49.830Z,23.22
2017-02-24T02:15:17.963Z,23.14
2017-02-24T02:15:46.095Z,23.15
2017-02-24T02:16:14.141Z,23.14
2017-02-24T02:16:42.129Z,23.14
2017-02-24T02:17:10.019Z,23.09
2017-02-24T02:17:38.174Z,23.12
2017-02-24T02:18:06.236Z,23.1
2017-02-24T02:18:34.611Z,23.14
2017-02-24T02:19:02.782Z,23.12
2017-02-24T02:19:30.865Z,23.12
2017-02-24T02:19:59.043Z,23.16
2017-02-24T02:20:27.246Z,23.1
2017-02-24T02:20:55.299Z,23.12
2017-02-24T02:21:23.402Z,23.12
2017-02-24T02:21:51.636Z,23.14
2017-02-24T02:22:19.854Z,23.14
2017-02-24T02:22:48.111Z,23.18
2017-02-24T02:23:16.235Z,23.18
2017-02-24T02:23:44.487Z,23.25
2017-02-24T02:24:12.629Z,23.25
2017-02-24T02:24:40.663Z,23.28
2017-02-24T02:25:08.788Z,23.29
2017-02-24T02:25:36.855Z,23.24
2017-02-24T02:26:04.956Z,23.28
2017-02-24T02:26:33.052Z,23.37
2017-02-24T02:27:01.150Z,23.29
2017-02-24T02:27:29.292Z,23.32
2017-02-24T02:27:57.431Z,23.34
2017-02-24T02:28:25.549Z,23.26
2017-02-24T02:28:53.768Z,23.26
2017-02-24T02:29:21.866Z,23.29
2017-02-24T02:29:49.902Z,23.34
2017-02-24T02:30:17.830Z,23.42
2017-02-24T02:30:45.881Z,23.44
2017-02-24T02:31:14.002Z,23.38
2017-02-24T02:31:42.013Z,23.38
2017-02-24T02:32:10.151Z,23.37
2017-02-24T02:32:38.283Z,23.45
2017-02-24T02:33:06.495Z,23.41
2017-02-24T02:33:34.667Z,23.4
2017-02-24T02:34:02.974Z,23.42
2017-02-24T02:34:31.166Z,23.34
2017-02-24T02:34:59.306Z,23.37
2017-02-24T02:35:27.534Z,23.29
2017-02-24T02:35:55.725Z,23.29
2017-02-24T02:36:24.021Z,23.26
2017-02-24T02:36:51.841Z,23.35
2017-02-24T02:37:19.889Z,23.25
2017-02-24T02:37:47.917Z,23.34
2017-02-24T02:38:16.037Z,23.24
2017-02-24T02:38:44.272Z,23.28
2017-02-24T02:39:12.559Z,23.28
2017-02-24T02:39:40.641Z,23.26
2017-02-24T02:40:08.656Z,23.28
2017-02-24T02:40:36.869Z,23.28
2017-02-24T02:41:04.867Z,23.29
2017-02-24T02:41:32.875Z,23.34
2017-02-24T02:42:01.025Z,23.29
2017-02-24T02:42:29.256Z,23.26
2017-02-24T02:42:57.484Z,23.25
2017-02-24T02:43:25.563Z,23.32
2017-02-24T02:43:53.876Z,23.37
2017-02-24T02:44:21.895Z,23.38
2017-02-24T02:44:50.015Z,23.29
2017-02-24T02:45:18.230Z,23.29
2017-02-24T02:45:46.335Z,23.26
2017-02-24T02:46:14.541Z,23.24
2017-02-24T02:46:42.618Z,23.22
2017-02-24T02:47:10.878Z,23.12
2017-02-24T02:47:39.119Z,23.14
2017-02-24T02:48:07.145Z,22.96
2017-02-24T02:48:35.250Z,22.97
2017-02-24T02:49:03.514Z,23.06
2017-02-24T02:49:31.568Z,22.94
2017-02-24T02:49:59.506Z,22.94
2017-02-24T02:50:27.556Z,22.99
2017-02-24T02:50:55.552Z,22.92
2017-02-24T02:51:23.563Z,22.99
2017-02-24T02:51:51.685Z,22.92
2017-02-24T02:52:19.748Z,23.03
2017-02-24T02:52:47.884Z,23.09
2017-02-24T02:53:16.020Z,22.94
2017-02-24T02:53:44.172Z,23
2017-02-24T02:54:12.580Z,23
2017-02-24T02:54:40.763Z,23
2017-02-24T02:55:08.781Z,23.06
2017-02-24T02:55:36.742Z,22.92
2017-02-24T02:56:04.795Z,22.99
2017-02-24T02:56:32.937Z,22.92
2017-02-24T02:57:01.076Z,22.86
2017-02-24T02:57:29.216Z,22.85
2017-02-24T02:57:57.319Z,22.81
2017-02-24T02:58:25.567Z,22.64
2017-02-24T02:58:53.693Z,22.7
2017-02-24T02:59:21.868Z,22.64
2017-02-24T02:59:49.915Z,22.64
2017-02-24T03:00:17.996Z,22.57
2017-02-24T03:00:46.190Z,22.57
2017-02-24T03:01:14.401Z,22.59
2017-02-24T03:01:42.633Z,22.6
2017-02-24T03:02:10.820Z,22.6
2017-02-24T03:02:39.110Z,22.54
2017-02-24T03:03:07.222Z,22.57
2017-02-24T03:03:35.410Z,22.52
2017-02-24T03:04:03.450Z,22.46
2017-02-24T03:04:31.444Z,22.42
2017-02-24T03:04:59.605Z,22.34
2017-02-24T03:05:27.796Z,22.36
2017-02-24T03:05:55.903Z,22.39
2017-02-24T03:06:24.082Z,22.38
2017-02-24T03:06:52.045Z,22.24
2017-02-24T03:07:19.990Z,22.36
2017-02-24T03:07:48.187Z,22.24
2017-02-24T03:08:16.175Z,22.36
2017-02-24T03:08:44.276Z,22.38
2017-02-24T03:09:12.720Z,22.33
2017-02-24T03:09:40.996Z,22.38
2017-02-24T03:10:09.006Z,22.23
2017-02-24T03:10:37.053Z,22.27
2017-02-24T03:11:05.292Z,22.36
2017-02-24T03:11:33.323Z,22.26
2017-02-24T03:12:01.413Z,22.23
2017-02-24T03:12:29.609Z,22.33
2017-02-24T03:12:57.827Z,22.31
2017-02-24T03:13:25.969Z,22.24
2017-02-24T03:13:53.941Z,22.26
2017-02-24T03:14:22.099Z,22.34
2017-02-24T03:14:50.309Z,22.27
2017-02-24T03:15:18.156Z,22.26
2017-02-24T03:15:46.115Z,22.27
2017-02-24T03:16:14.241Z,22.27
2017-02-24T03:16:42.365Z,22.26
2017-02-24T03:17:10.440Z,22.26
2017-02-24T03:17:38.599Z,22.31
2017-02-24T03:18:06.643Z,22.26
2017-02-24T03:18:34.822Z,22.29
2017-02-24T03:19:02.963Z,22.31
2017-02-24T03:19:31.202Z,22.27
2017-02-24T03:19:59.477Z,22.2
2017-02-24T03:20:27.594Z,22.27
2017-02-24T03:20:55.701Z,22.27
2017-02-24T03:21:23.787Z,22.27
2017-02-24T03:21:51.976Z,22.3
2017-02-24T03:22:20.150Z,22.27
2017-02-24T03:22:48.239Z,22.27
2017-02-24T03:23:16.325Z,22.18
2017-02-24T03:23:44.462Z,22.24
2017-02-24T03:24:12.660Z,22.22
2017-02-24T03:24:40.827Z,22.23
2017-02-24T03:25:09.015Z,22.23
2017-02-24T03:25:37.065Z,22.22
2017-02-24T03:26:05.265Z,22.26
2017-02-24T03:26:33.288Z,22.2
2017-02-24T03:27:01.421Z,22.26
2017-02-24T03:27:29.495Z,22.23
2017-02-24T03:27:57.789Z,22.27
2017-02-24T03:28:25.897Z,22.22
2017-02-24T03:28:54.031Z,22.22
2017-02-24T03:29:22.186Z,22.2
2017-02-24T03:29:50.182Z,22.24
2017-02-24T03:30:18.380Z,22.2
2017-02-24T03:30:46.332Z,22.27
2017-02-24T03:31:14.392Z,22.24
2017-02-24T03:31:42.584Z,22.26
2017-02-24T03:32:10.514Z,22.27
2017-02-24T03:32:38.627Z,22.29
2017-02-24T03:33:06.750Z,22.3
2017-02-24T03:33:34.908Z,22.23
2017-02-24T03:34:02.874Z,22.22
2017-02-24T03:34:31.113Z,22.26
2017-02-24T03:34:59.126Z,22.24
2017-02-24T03:35:27.188Z,22.24
2017-02-24T03:35:55.503Z,22.29
2017-02-24T03:36:23.627Z,22.24
2017-02-24T03:36:51.669Z,22.26
2017-02-24T03:37:19.488Z,22.24
2017-02-24T03:37:47.607Z,22.26
2017-02-24T03:38:15.972Z,22.2
2017-02-24T03:38:44.158Z,22.24
2017-02-24T03:39:12.411Z,22.22
2017-02-24T03:39:40.805Z,22.24
2017-02-24T03:40:08.852Z,22.23
2017-02-24T03:40:36.949Z,22.16
2017-02-24T03:41:05.068Z,22.15
2017-02-24T03:41:33.315Z,22.2
2017-02-24T03:42:01.427Z,22.11
2017-02-24T03:42:29.642Z,21.99
2017-02-24T03:42:57.797Z,22.05
2017-02-24T03:43:25.841Z,22
2017-02-24T03:43:53.929Z,21.99
2017-02-24T03:44:21.956Z,21.96
2017-02-24T03:44:50.362Z,22.02
2017-02-24T03:45:18.521Z,22
2017-02-24T03:45:46.552Z,21.92
2017-02-24T03:46:15.007Z,21.89
2017-02-24T03:46:42.951Z,21.86
2017-02-24T03:47:11.073Z,21.85
2017-02-24T03:47:39.299Z,21.74
2017-02-24T03:48:07.515Z,21.76
2017-02-24T03:48:35.533Z,21.74
2017-02-24T03:49:03.596Z,21.68
2017-02-24T03:49:31.637Z,21.8
2017-02-24T03:49:59.846Z,21.76
2017-02-24T03:50:27.963Z,21.77
2017-02-24T03:50:55.973Z,21.73
2017-02-24T03:51:24.059Z,21.66
2017-02-24T03:51:52.217Z,21.71
2017-02-24T03:52:20.263Z,21.68
2017-02-24T03:52:48.286Z,21.67
2017-02-24T03:53:16.250Z,21.58
2017-02-24T03:53:44.615Z,21.67
2017-02-24T03:54:12.731Z,21.66
2017-02-24T03:54:41.250Z,21.74
2017-02-24T03:55:09.184Z,21.67
2017-02-24T03:55:37.482Z,21.58
2017-02-24T03:56:05.597Z,21.71
2017-02-24T03:56:33.767Z,21.56
2017-02-24T03:57:01.997Z,21.66
2017-02-24T03:57:30.128Z,21.64
2017-02-24T03:57:58.292Z,21.51
2017-02-24T03:58:26.284Z,21.56
2017-02-24T03:58:54.569Z,21.49
2017-02-24T03:59:22.604Z,21.49
2017-02-24T03:59:50.760Z,21.45
2017-02-24T04:00:18.878Z,21.45
2017-02-24T04:00:47.288Z,21.43
2017-02-24T04:01:15.325Z,21.45
2017-02-24T04:01:43.353Z,21.49
2017-02-24T04:02:11.464Z,21.45
2017-02-24T04:02:39.599Z,21.43
2017-02-24T04:03:07.719Z,21.45
2017-02-24T04:03:35.946Z,21.53
2017-02-24T04:04:04.349Z,21.38
2017-02-24T04:04:32.457Z,21.4
2017-02-24T04:05:00.766Z,21.43
2017-02-24T04:05:28.639Z,21.45
2017-02-24T04:05:56.893Z,21.41
2017-02-24T04:06:24.907Z,21.48
2017-02-24T04:06:53.007Z,21.48
2017-02-24T04:07:21.188Z,21.46
2017-02-24T04:07:49.518Z,21.46
2017-02-24T04:08:17.551Z,21.41
2017-02-24T04:08:45.729Z,21.45
2017-02-24T04:09:13.939Z,21.46
2017-02-24T04:09:42.142Z,21.38
2017-02-24T04:10:10.274Z,21.36
2017-02-24T04:10:38.259Z,21.31
2017-02-24T04:11:06.645Z,21.41
2017-02-24T04:11:34.802Z,21.37
2017-02-24T04:12:02.977Z,21.31
2017-02-24T04:12:31.182Z,21.38
2017-02-24T04:12:59.372Z,21.41
2017-02-24T04:13:27.391Z,21.41
2017-02-24T04:13:55.576Z,21.4
2017-02-24T04:14:23.453Z,21.38
2017-02-24T04:14:51.830Z,21.37
2017-02-24T04:15:19.898Z,21.31
2017-02-24T04:15:48.155Z,21.38
2017-02-24T04:16:16.295Z,21.37
2017-02-24T04:16:44.429Z,21.33
2017-02-24T04:17:12.429Z,21.41
2017-02-24T04:17:40.636Z,21.37
2017-02-24T04:18:08.637Z,21.38
2017-02-24T04:18:36.714Z,21.37
2017-02-24T04:19:04.737Z,21.43
2017-02-24T04:19:32.982Z,21.37
2017-02-24T04:20:01.367Z,21.3
2017-02-24T04:20:29.615Z,21.36
2017-02-24T04:20:57.727Z,21.36
2017-02-24T04:21:25.807Z,21.34
2017-02-24T04:21:53.906Z,21.33
2017-02-24T04:22:22.005Z,21.4
2017-02-24T04:22:50.429Z,21.33
2017-02-24T04:23:18.659Z,21.36
2017-02-24T04:23:46.796Z,21.38
2017-02-24T04:24:14.938Z,21.38
2017-02-24T04:24:43.221Z,21.4
2017-02-24T04:25:11.492Z,21.36
2017-02-24T04:25:39.618Z,21.33
2017-02-24T04:26:07.789Z,21.36
2017-02-24T04:26:36.226Z,21.45
2017-02-24T04:27:04.428Z,21.37
2017-02-24T04:27:32.502Z,21.43
2017-02-24T04:28:00.765Z,21.41
2017-02-24T04:28:28.694Z,21.37
2017-02-24T04:28:56.833Z,21.38
2017-02-24T04:29:24.947Z,21.37
2017-02-24T04:29:53.130Z,21.34
2017-02-24T04:30:21.191Z,21.31
2017-02-24T04:30:49.243Z,21.4
2017-02-24T04:31:17.511Z,21.28
2017-02-24T04:31:45.591Z,21.36
2017-02-24T04:32:13.788Z,21.4
2017-02-24T04:32:41.870Z,21.36
2017-02-24T04:33:09.875Z,21.43
2017-02-24T04:33:37.816Z,21.38
2017-02-24T04:34:06.045Z,21.45
2017-02-24T04:34:34.146Z,21.36
2017-02-24T04:35:02.796Z,21.41
2017-02-24T04:35:30.857Z,21.36
2017-02-24T04:35:58.999Z,21.36
2017-02-24T04:36:27.214Z,21.4
2017-02-24T04:36:55.284Z,21.38
2017-02-24T04:37:23.208Z,21.37
2017-02-24T04:37:51.178Z,21.36
2017-02-24T04:38:19.308Z,21.41
2017-02-24T04:38:47.343Z,21.34
2017-02-24T04:39:15.291Z,21.34
2017-02-24T04:39:43.548Z,21.31
2017-02-24T04:40:11.909Z,21.38
2017-02-24T04:40:40.112Z,21.4
2017-02-24T04:41:08.232Z,21.37
2017-02-24T04:41:36.380Z,21.4
2017-02-24T04:42:04.449Z,21.38
2017-02-24T04:42:32.635Z,21.34
2017-02-24T04:43:00.860Z,21.37
2017-02-24T04:43:28.919Z,21.34
2017-02-24T04:43:56.873Z,21.49
2017-02-24T04:44:24.967Z,21.37
2017-02-24T04:44:52.954Z,21.38
2017-02-24T04:45:21.560Z,21.38
2017-02-24T04:45:49.611Z,21.41
2017-02-24T04:46:17.816Z,21.45
2017-02-24T04:46:45.850Z,21.37
2017-02-24T04:47:14.254Z,21.38
2017-02-24T04:47:42.374Z,21.38
2017-02-24T04:48:10.583Z,21.38
2017-02-24T04:48:38.878Z,21.37
2017-02-24T04:49:06.972Z,21.38
2017-02-24T04:49:34.924Z,21.31
2017-02-24T04:50:03.150Z,21.46
2017-02-24T04:50:31.459Z,21.33
2017-02-24T04:50:59.587Z,21.31
2017-02-24T04:51:27.808Z,21.36
2017-02-24T04:51:56.019Z,21.46
2017-02-24T04:52:24.066Z,21.33
2017-02-24T04:52:52.090Z,21.43
2017-02-24T04:53:20.145Z,21.4
2017-02-24T04:53:48.372Z,21.38
2017-02-24T04:54:16.561Z,21.46
2017-02-24T04:54:44.705Z,21.38
2017-02-24T04:55:12.930Z,21.41
2017-02-24T04:55:41.293Z,21.33
2017-02-24T04:56:09.446Z,21.33
2017-02-24T04:56:37.485Z,21.45
2017-02-24T04:57:05.513Z,21.36
2017-02-24T04:57:33.593Z,21.31
2017-02-24T04:58:01.665Z,21.36
2017-02-24T04:58:29.873Z,21.4
2017-02-24T04:58:58.123Z,21.38
2017-02-24T04:59:26.042Z,21.49
2017-02-24T04:59:54.101Z,21.52
2017-02-24T05:00:22.394Z,21.36
2017-02-24T05:00:50.785Z,21.3
2017-02-24T05:01:18.837Z,21.36
2017-02-24T05:01:47.000Z,21.36
2017-02-24T05:02:15.058Z,21.34
2017-02-24T05:02:43.297Z,21.3
2017-02-24T05:03:11.449Z,21.37
2017-02-24T05:03:39.571Z,21.38
2017-02-24T05:04:07.815Z,21.37
2017-02-24T05:04:35.983Z,21.38
2017-02-24T05:05:04.106Z,21.38
2017-02-24T05:05:32.434Z,21.34
2017-02-24T05:06:00.537Z,21.45
2017-02-24T05:06:28.649Z,21.38
2017-02-24T05:06:56.820Z,21.37
2017-02-24T05:07:24.991Z,21.37
2017-02-24T05:07:52.859Z,21.41
2017-02-24T05:08:21.001Z,21.43
2017-02-24T05:08:49.094Z,21.38
2017-02-24T05:09:17.226Z,21.4
2017-02-24T05:09:45.289Z,21.36
2017-02-24T05:10:13.303Z,21.4
2017-02-24T05:10:41.632Z,21.33
2017-02-24T05:11:09.738Z,21.43
2017-02-24T05:11:37.931Z,21.43
2017-02-24T05:12:06.124Z,21.43
2017-02-24T05:12:34.059Z,21.38
2017-02-24T05:13:02.471Z,21.38
2017-02-24T05:13:30.704Z,21.38
2017-02-24T05:13:58.862Z,21.38
2017-02-24T05:14:27.021Z,21.38
2017-02-24T05:14:55.291Z,21.43
2017-02-24T05:15:23.316Z,21.45
2017-02-24T05:15:51.515Z,21.43
2017-02-24T05:16:19.622Z,21.45
2017-02-24T05:16:47.686Z,21.43
2017-02-24T05:17:15.800Z,21.43
2017-02-24T05:17:43.854Z,21.51
2017-02-24T05:18:11.858Z,21.41
2017-02-24T05:18:40.055Z,21.45
2017-02-24T05:19:08.228Z,21.48
2017-02-24T05:19:36.262Z,21.48
2017-02-24T05:20:04.423Z,21.48
2017-02-24T05:20:32.762Z,21.53
2017-02-24T05:21:00.931Z,21.58
2017-02-24T05:21:29.071Z,21.53
2017-02-24T05:21:57.304Z,21.53
2017-02-24T05:22:25.447Z,21.64
2017-02-24T05:22:53.488Z,21.53
2017-02-24T05:23:21.724Z,21.48
2017-02-24T05:23:49.922Z,21.52
2017-02-24T05:24:18.074Z,21.58
2017-02-24T05:24:46.213Z,21.55
2017-02-24T05:25:14.310Z,21.64
2017-02-24T05:25:42.434Z,21.67
2017-02-24T05:26:10.413Z,21.68
2017-02-24T05:26:38.579Z,21.68
2017-02-24T05:27:06.486Z,21.73
2017-02-24T05:27:34.533Z,21.71
2017-02-24T05:28:02.790Z,21.76
2017-02-24T05:28:30.863Z,21.8
2017-02-24T05:28:58.882Z,21.7
2017-02-24T05:29:27.199Z,21.76
2017-02-24T05:29:55.324Z,21.74
2017-02-24T05:30:23.437Z,21.7
2017-02-24T05:30:51.898Z,21.73
2017-02-24T05:31:20.031Z,21.71
2017-02-24T05:31:48.165Z,21.73
2017-02-24T05:32:16.210Z,21.78
2017-02-24T05:32:44.429Z,21.68
2017-02-24T05:33:12.542Z,21.8
2017-02-24T05:33:40.650Z,21.82
2017-02-24T05:34:08.705Z,21.86
2017-02-24T05:34:36.836Z,21.82
2017-02-24T05:35:05.010Z,21.85
2017-02-24T05:35:32.962Z,21.85
2017-02-24T05:36:01.246Z,21.83
2017-02-24T05:36:29.491Z,21.85
2017-02-24T05:36:57.516Z,21.9
2017-02-24T05:37:25.670Z,21.9
2017-02-24T05:37:53.768Z,21.9
2017-02-24T05:38:21.827Z,21.9
2017-02-24T05:38:50.037Z,21.89
2017-02-24T05:39:18.056Z,21.85
2017-02-24T05:39:46.166Z,21.99
2017-02-24T05:40:14.289Z,21.99
2017-02-24T05:40:42.473Z,21.97
2017-02-24T05:41:10.497Z,21.9
2017-02-24T05:41:38.674Z,21.94
2017-02-24T05:42:06.818Z,21.94
2017-02-24T05:42:34.830Z,22
2017-02-24T05:43:02.855Z,21.97
2017-02-24T05:43:31.123Z,21.86
2017-02-24T05:43:59.333Z,21.99
2017-02-24T05:44:27.441Z,22
2017-02-24T05:44:55.719Z,21.94
2017-02-24T05:45:23.825Z,21.86
2017-02-24T05:45:51.884Z,22
2017-02-24T05:46:20.040Z,21.99
2017-02-24T05:46:48.086Z,21.97
2017-02-24T05:47:16.288Z,21.97
2017-02-24T05:47:44.515Z,21.9
2017-02-24T05:48:12.630Z,22
2017-02-24T05:48:40.697Z,21.96
2017-02-24T05:49:08.843Z,21.99
2017-02-24T05:49:36.774Z,21.89
2017-02-24T05:50:04.819Z,21.9
2017-02-24T05:50:32.999Z,21.94
2017-02-24T05:51:01.139Z,21.94
2017-02-24T05:51:29.298Z,21.93
2017-02-24T05:51:57.459Z,21.82
2017-02-24T05:52:25.735Z,21.85
2017-02-24T05:52:53.843Z,21.8
2017-02-24T05:53:21.969Z,21.8
2017-02-24T05:53:50.198Z,21.85
2017-02-24T05:54:18.379Z,21.93
2017-02-24T05:54:46.594Z,21.9
2017-02-24T05:55:14.576Z,21.83
2017-02-24T05:55:42.660Z,21.86
2017-02-24T05:56:10.600Z,21.9
2017-02-24T05:56:38.789Z,21.85
2017-02-24T05:57:06.960Z,21.85
2017-02-24T05:57:35.057Z,21.9
2017-02-24T05:58:03.120Z,21.82
2017-02-24T05:58:31.020Z,21.8
2017-02-24T05:58:59.132Z,21.77
2017-02-24T05:59:27.259Z,21.78
2017-02-24T05:59:55.301Z,21.82
2017-02-24T06:00:23.454Z,21.85
2017-02-24T06:00:51.967Z,21.83
2017-02-24T06:01:20.160Z,21.8
2017-02-24T06:01:48.336Z,21.78
2017-02-24T06:02:16.458Z,21.83
2017-02-24T06:02:44.666Z,21.76
2017-02-24T06:03:12.482Z,21.82
2017-02-24T06:03:40.548Z,21.85